Time;durP1;ratioP1;P1;durP2;ratioP2;P2;SDS_P1;SDS_P2;PMS_P1;PMS_P2;Temp;Humidity;BMP_temperature;BMP_pressure;BME280_temperature;BME280_humidity;BME280_pressure;Samples;Min_cycle;Max_cycle;Signal;HPM_P1;HPM_P2
2023/08/03 00:00:40;;;;;;;22.63;21.03;;;;;;;;;;5090810;28;20470;-79
2023/08/03 00:03:07;;;;;;;21.60;20.13;;;;;;;;;;5090215;28;20428;-80
2023/08/03 00:05:39;;;;;;;21.93;20.33;;;;;;;;;;5091183;28;20760;-78
2023/08/03 00:08:06;;;;;;;20.77;19.53;;;;;;;;;;5080621;28;20457;-79
2023/08/03 00:10:35;;;;;;;22.57;21.03;;;;;;;;;;5075689;28;20488;-80
2023/08/03 00:13:02;;;;;;;21.80;20.60;;;;;;;;;;5077825;28;20500;-78
2023/08/03 00:15:29;;;;;;;20.83;19.63;;;;;;;;;;5075070;28;20416;-78
2023/08/03 00:17:56;;;;;;;21.80;20.43;;;;;;;;;;5086511;28;20416;-76
2023/08/03 00:20:23;;;;;;;20.60;19.50;;;;;;;;;;5076070;28;20493;-78
2023/08/03 00:22:51;;;;;;;21.57;20.10;;;;;;;;;;5082931;28;21028;-78
2023/08/03 00:25:19;;;;;;;20.50;19.40;;;;;;;;;;5077575;28;20417;-78
2023/08/03 00:27:46;;;;;;;21.83;20.50;;;;;;;;;;5073586;28;20472;-79
2023/08/03 00:30:13;;;;;;;22.17;20.93;;;;;;;;;;5073393;28;20433;-77
2023/08/03 00:32:40;;;;;;;21.40;20.40;;;;;;;;;;5074906;28;20553;-78
2023/08/03 00:35:07;;;;;;;22.27;20.87;;;;;;;;;;5074903;28;20927;-80
2023/08/03 00:37:37;;;;;;;22.40;21.00;;;;;;;;;;5074740;28;20473;-80
2023/08/03 00:40:06;;;;;;;21.70;20.50;;;;;;;;;;5076006;28;20442;-81
2023/08/03 00:42:33;;;;;;;22.40;20.77;;;;;;;;;;5075703;28;20430;-81
2023/08/03 00:45:00;;;;;;;21.80;20.50;;;;;;;;;;5074359;28;20927;-81
2023/08/03 00:47:27;;;;;;;20.20;19.07;;;;;;;;;;5074800;28;20967;-81
2023/08/03 00:49:54;;;;;;;21.33;20.20;;;;;;;;;;5074478;28;20773;-80
2023/08/03 00:52:23;;;;;;;21.87;20.50;;;;;;;;;;5077852;28;20500;-79
2023/08/03 00:54:50;;;;;;;21.30;20.30;;;;;;;;;;5079339;28;20454;-77
2023/08/03 00:57:18;;;;;;;22.47;21.23;;;;;;;;;;5087008;28;20440;-77
2023/08/03 00:59:45;;;;;;;23.40;22.10;;;;;;;;;;5077706;28;20450;-78
2023/08/03 01:02:12;;;;;;;22.87;21.47;;;;;;;;;;5078609;28;20472;-78
2023/08/03 01:04:39;;;;;;;23.30;21.90;;;;;;;;;;5077890;28;20450;-78
2023/08/03 01:07:07;;;;;;;24.70;23.10;;;;;;;;;;5077800;28;20477;-77
2023/08/03 01:09:34;;;;;;;22.53;21.33;;;;;;;;;;5076365;28;20422;-77
2023/08/03 01:12:01;;;;;;;23.73;22.37;;;;;;;;;;5077239;28;20997;-78
2023/08/03 01:14:29;;;;;;;23.27;22.07;;;;;;;;;;5080597;28;20420;-78
2023/08/03 01:16:56;;;;;;;23.90;22.27;;;;;;;;;;5077321;28;20452;-78
2023/08/03 01:19:23;;;;;;;23.93;22.67;;;;;;;;;;5075464;28;20469;-78
2023/08/03 01:21:51;;;;;;;22.43;21.30;;;;;;;;;;5076999;28;20875;-78
2023/08/03 01:24:19;;;;;;;23.10;22.00;;;;;;;;;;5076917;28;20442;-78
2023/08/03 01:26:46;;;;;;;25.33;24.13;;;;;;;;;;5076628;28;20446;-77
2023/08/03 01:29:13;;;;;;;25.77;24.47;;;;;;;;;;5075473;28;20474;-77
2023/08/03 01:31:41;;;;;;;25.70;24.40;;;;;;;;;;5076332;28;20497;-78
2023/08/03 01:34:08;;;;;;;25.07;23.77;;;;;;;;;;5076571;28;20842;-78
2023/08/03 01:36:35;;;;;;;25.60;24.40;;;;;;;;;;5076268;28;20481;-77
2023/08/03 01:39:08;;;;;;;25.47;24.00;;;;;;;;;;5075555;28;20465;-77
2023/08/03 01:41:37;;;;;;;25.67;24.47;;;;;;;;;;5079593;28;20472;-77
2023/08/03 01:44:22;;;;;;;24.40;22.97;;;;;;;;;;5076333;28;20632;-77
2023/08/03 01:46:49;;;;;;;26.90;25.40;;;;;;;;;;5075941;28;20433;-77
2023/08/03 01:49:17;;;;;;;26.83;25.53;;;;;;;;;;5075558;28;20457;-79
2023/08/03 01:51:44;;;;;;;28.83;27.43;;;;;;;;;;5076047;28;20474;-77
2023/08/03 01:54:12;;;;;;;28.13;26.83;;;;;;;;;;5075628;28;20453;-77
2023/08/03 01:56:40;;;;;;;27.20;25.80;;;;;;;;;;5076880;28;20979;-78
2023/08/03 01:59:07;;;;;;;27.60;25.97;;;;;;;;;;5075308;28;20465;-76
2023/08/03 02:01:34;;;;;;;29.40;27.60;;;;;;;;;;5077484;28;20470;-78
2023/08/03 02:04:01;;;;;;;28.87;27.47;;;;;;;;;;5075177;28;20935;-78
2023/08/03 02:06:28;;;;;;;28.10;26.70;;;;;;;;;;5081177;28;20469;-80
2023/08/03 02:08:55;;;;;;;33.43;31.83;;;;;;;;;;5079518;28;20504;-79
2023/08/03 02:11:24;;;;;;;35.07;32.93;;;;;;;;;;5076701;28;20477;-79
2023/08/03 02:13:52;;;;;;;32.97;31.30;;;;;;;;;;5076942;28;20448;-80
2023/08/03 02:16:19;;;;;;;37.47;35.43;;;;;;;;;;5076788;28;20452;-79
2023/08/03 02:18:47;;;;;;;35.33;33.40;;;;;;;;;;5077255;28;20438;-79
2023/08/03 02:21:14;;;;;;;38.20;35.90;;;;;;;;;;5079506;28;20473;-78
2023/08/03 02:23:41;;;;;;;37.63;35.57;;;;;;;;;;5086904;28;20513;-78
2023/08/03 02:26:08;;;;;;;40.50;38.30;;;;;;;;;;5078288;28;20460;-79
2023/08/03 02:28:36;;;;;;;38.57;36.57;;;;;;;;;;5076457;28;20460;-79
2023/08/03 02:31:04;;;;;;;38.33;36.33;;;;;;;;;;5076374;28;20584;-79
2023/08/03 02:33:31;;;;;;;35.33;33.53;;;;;;;;;;5075355;28;20432;-77
2023/08/03 02:35:58;;;;;;;39.43;37.33;;;;;;;;;;5075029;28;20496;-78
2023/08/03 02:38:25;;;;;;;30.67;28.90;;;;;;;;;;5073944;28;20438;-78
2023/08/03 02:40:52;;;;;;;28.63;27.13;;;;;;;;;;5079346;28;20504;-77
2023/08/03 02:43:20;;;;;;;34.57;32.53;;;;;;;;;;5078028;28;20438;-78
2023/08/03 02:45:47;;;;;;;35.23;33.43;;;;;;;;;;5075586;28;20434;-77
2023/08/03 02:48:15;;;;;;;32.40;30.80;;;;;;;;;;5078133;28;20430;-78
2023/08/03 02:50:42;;;;;;;34.93;32.97;;;;;;;;;;5087793;28;20481;-79
2023/08/03 02:53:09;;;;;;;33.20;31.33;;;;;;;;;;5084568;28;20481;-78
2023/08/03 02:55:37;;;;;;;37.33;35.53;;;;;;;;;;5078368;28;20442;-78
2023/08/03 02:58:04;;;;;;;35.73;33.93;;;;;;;;;;5075705;28;20441;-77
2023/08/03 03:00:31;;;;;;;35.40;33.70;;;;;;;;;;5074124;28;20477;-78
2023/08/03 03:02:58;;;;;;;35.97;34.17;;;;;;;;;;5075619;28;20446;-78
2023/08/03 03:05:26;;;;;;;34.10;32.43;;;;;;;;;;5075190;28;21176;-77
2023/08/03 03:07:53;;;;;;;34.57;32.77;;;;;;;;;;5074729;28;20450;-77
2023/08/03 03:10:20;;;;;;;32.10;30.50;;;;;;;;;;5074214;28;20472;-77
2023/08/03 03:12:47;;;;;;;34.63;32.83;;;;;;;;;;5074830;28;21345;-78
2023/08/03 03:15:14;;;;;;;34.73;33.03;;;;;;;;;;5075343;28;20450;-79
2023/08/03 03:17:42;;;;;;;35.70;33.93;;;;;;;;;;5075694;28;20424;-78
2023/08/03 03:20:10;;;;;;;41.07;39.07;;;;;;;;;;5075202;28;20439;-79
2023/08/03 03:22:38;;;;;;;40.10;38.13;;;;;;;;;;5075483;28;20461;-78
2023/08/03 03:25:05;;;;;;;39.60;37.70;;;;;;;;;;5075504;28;20513;-78
2023/08/03 03:27:32;;;;;;;42.60;40.40;;;;;;;;;;5076247;28;20450;-78
2023/08/03 03:29:59;;;;;;;44.90;42.80;;;;;;;;;;5074480;28;20472;-77
2023/08/03 03:32:26;;;;;;;44.50;42.20;;;;;;;;;;5074321;28;21014;-77
2023/08/03 03:34:53;;;;;;;45.50;43.17;;;;;;;;;;5074950;28;20460;-78
2023/08/03 03:37:20;;;;;;;42.03;39.87;;;;;;;;;;5075181;28;20449;-77
2023/08/03 03:39:49;;;;;;;44.87;42.47;;;;;;;;;;5074028;28;20413;-77
2023/08/03 03:42:16;;;;;;;45.20;42.80;;;;;;;;;;5074208;28;20478;-78
2023/08/03 03:44:43;;;;;;;44.30;41.50;;;;;;;;;;5074219;28;20419;-77
2023/08/03 03:47:10;;;;;;;43.90;41.90;;;;;;;;;;5074590;28;20466;-77
2023/08/03 03:49:37;;;;;;;46.33;44.10;;;;;;;;;;5074143;28;20450;-78
2023/08/03 03:52:04;;;;;;;42.20;40.20;;;;;;;;;;5074655;28;20475;-78
2023/08/03 03:54:31;;;;;;;44.20;41.90;;;;;;;;;;5075079;28;20446;-77
2023/08/03 03:57:00;;;;;;;45.20;43.00;;;;;;;;;;5076102;28;20420;-80
2023/08/03 03:59:27;;;;;;;44.80;42.50;;;;;;;;;;5073525;28;20942;-77
2023/08/03 04:01:54;;;;;;;47.40;45.00;;;;;;;;;;5074834;28;20462;-77
2023/08/03 04:04:21;;;;;;;48.67;45.93;;;;;;;;;;5074469;28;20438;-77
2023/08/03 04:06:48;;;;;;;47.87;45.57;;;;;;;;;;5074654;28;20446;-76
2023/08/03 04:09:15;;;;;;;44.40;42.30;;;;;;;;;;5074569;28;20449;-78
2023/08/03 04:11:42;;;;;;;45.83;43.40;;;;;;;;;;5074565;28;20854;-76
2023/08/03 04:14:11;;;;;;;48.00;45.37;;;;;;;;;;5073854;28;20465;-78
2023/08/03 04:16:38;;;;;;;46.17;43.87;;;;;;;;;;5074121;28;20465;-77
2023/08/03 04:19:05;;;;;;;43.13;40.50;;;;;;;;;;5073432;28;20810;-77
2023/08/03 04:21:32;;;;;;;45.07;42.73;;;;;;;;;;5074711;28;20465;-77
2023/08/03 04:23:59;;;;;;;44.03;41.73;;;;;;;;;;5073929;28;20469;-79
2023/08/03 04:26:26;;;;;;;40.90;38.90;;;;;;;;;;5074290;28;20939;-79
2023/08/03 04:28:53;;;;;;;43.03;40.80;;;;;;;;;;5074349;28;20453;-77
2023/08/03 04:31:21;;;;;;;42.10;39.90;;;;;;;;;;5074415;28;20452;-78
2023/08/03 04:33:48;;;;;;;43.57;41.30;;;;;;;;;;5073682;28;21052;-79
2023/08/03 04:36:15;;;;;;;44.80;42.50;;;;;;;;;;5075135;28;20468;-79
2023/08/03 04:38:43;;;;;;;37.43;35.17;;;;;;;;;;5074648;28;20408;-78
2023/08/03 04:41:10;;;;;;;40.57;38.47;;;;;;;;;;5075072;28;20465;-77
2023/08/03 04:43:37;;;;;;;41.30;38.70;;;;;;;;;;5076912;28;20457;-77
2023/08/03 04:46:04;;;;;;;36.93;35.00;;;;;;;;;;5076185;28;20432;-79
2023/08/03 04:48:32;;;;;;;35.73;33.70;;;;;;;;;;5075769;28;20511;-77
2023/08/03 04:50:59;;;;;;;36.17;33.73;;;;;;;;;;5075904;28;20858;-78
2023/08/03 04:53:27;;;;;;;37.97;35.67;;;;;;;;;;5075258;28;20486;-76
2023/08/03 04:55:54;;;;;;;37.50;35.13;;;;;;;;;;5075860;28;20584;-78
2023/08/03 04:58:21;;;;;;;36.40;34.27;;;;;;;;;;5073016;28;20483;-75
2023/08/03 05:00:48;;;;;;;38.40;35.93;;;;;;;;;;5067056;28;20475;-76
2023/08/03 05:03:15;;;;;;;40.20;37.90;;;;;;;;;;5051690;28;20446;-75
2023/08/03 05:05:43;;;;;;;35.83;34.03;;;;;;;;;;5073158;28;20508;-77
2023/08/03 05:08:10;;;;;;;38.37;36.03;;;;;;;;;;5075376;28;20453;-78
2023/08/03 05:10:37;;;;;;;34.87;33.03;;;;;;;;;;5077117;28;20990;-78
2023/08/03 05:13:04;;;;;;;34.77;32.97;;;;;;;;;;5077327;28;20496;-76
2023/08/03 05:15:31;;;;;;;36.23;34.13;;;;;;;;;;5077634;28;20477;-78
2023/08/03 05:18:01;;;;;;;32.80;31.10;;;;;;;;;;5075557;28;20457;-75
2023/08/03 05:20:28;;;;;;;36.67;34.63;;;;;;;;;;5073374;28;20452;-75
2023/08/03 05:22:56;;;;;;;35.93;33.73;;;;;;;;;;5075818;28;20437;-79
2023/08/03 05:25:23;;;;;;;32.33;30.53;;;;;;;;;;5076299;28;20462;-79
2023/08/03 05:27:50;;;;;;;30.57;28.80;;;;;;;;;;5077449;28;20421;-79
2023/08/03 05:30:17;;;;;;;32.27;30.37;;;;;;;;;;5075479;28;20450;-77
2023/08/03 05:32:44;;;;;;;31.37;29.73;;;;;;;;;;5072521;28;20489;-76
2023/08/03 05:35:13;;;;;;;32.80;31.03;;;;;;;;;;5073344;28;20457;-77
2023/08/03 05:37:41;;;;;;;32.03;30.33;;;;;;;;;;5072911;28;20443;-76
2023/08/03 05:40:10;;;;;;;30.27;28.77;;;;;;;;;;5075774;28;20450;-76
2023/08/03 05:42:38;;;;;;;31.77;29.87;;;;;;;;;;5076950;28;20441;-77
2023/08/03 05:45:07;;;;;;;31.93;30.40;;;;;;;;;;5077412;28;20461;-78
2023/08/03 05:47:34;;;;;;;31.23;29.33;;;;;;;;;;5076632;28;20461;-76
2023/08/03 05:50:05;;;;;;;29.27;27.90;;;;;;;;;;5078167;28;20471;-77
2023/08/03 05:52:32;;;;;;;30.47;29.07;;;;;;;;;;5078010;28;20478;-76
2023/08/03 05:54:59;;;;;;;28.80;27.50;;;;;;;;;;5076988;28;20836;-76
2023/08/03 05:57:27;;;;;;;29.97;28.13;;;;;;;;;;5076860;28;20465;-78
2023/08/03 05:59:55;;;;;;;27.90;26.50;;;;;;;;;;5077054;28;20442;-76
2023/08/03 06:02:30;;;;;;;28.87;27.50;;;;;;;;;;5083513;28;21006;-77
2023/08/03 06:04:57;;;;;;;25.80;24.70;;;;;;;;;;5074990;28;20529;-77
2023/08/03 06:07:24;;;;;;;25.00;23.80;;;;;;;;;;5074361;28;20436;-77
2023/08/03 06:09:51;;;;;;;26.83;25.40;;;;;;;;;;5073585;28;20443;-76
2023/08/03 06:12:19;;;;;;;25.20;24.00;;;;;;;;;;5074014;28;20492;-77
2023/08/03 06:14:48;;;;;;;26.67;25.37;;;;;;;;;;5074810;28;20445;-76
2023/08/03 06:17:15;;;;;;;24.97;23.57;;;;;;;;;;5074394;28;21008;-76
2023/08/03 06:19:43;;;;;;;24.80;23.70;;;;;;;;;;5074429;28;20448;-76
2023/08/03 06:22:15;;;;;;;27.80;25.60;;;;;;;;;;5073827;28;21277;-76
2023/08/03 06:24:42;;;;;;;26.33;25.20;;;;;;;;;;5074340;28;20429;-76
2023/08/03 06:27:11;;;;;;;25.93;24.73;;;;;;;;;;5074390;28;20450;-76
2023/08/03 06:29:39;;;;;;;26.67;25.37;;;;;;;;;;5073064;28;21017;-76
2023/08/03 06:32:10;;;;;;;25.97;24.67;;;;;;;;;;5074220;28;20481;-76
2023/08/03 06:34:37;;;;;;;25.23;23.93;;;;;;;;;;5074763;28;20458;-75
2023/08/03 06:37:04;;;;;;;25.70;24.03;;;;;;;;;;5073577;28;20943;-74
2023/08/03 06:39:31;;;;;;;24.67;23.47;;;;;;;;;;5072371;28;20485;-74
2023/08/03 06:42:02;;;;;;;25.07;23.97;;;;;;;;;;5081201;28;20458;-75
2023/08/03 06:44:29;;;;;;;25.47;24.03;;;;;;;;;;5074298;28;20517;-75
2023/08/03 06:46:56;;;;;;;23.87;22.77;;;;;;;;;;5074141;28;20442;-75
2023/08/03 06:49:25;;;;;;;24.90;23.60;;;;;;;;;;5065610;28;20452;-75
2023/08/03 06:51:52;;;;;;;25.93;24.67;;;;;;;;;;5093309;28;20459;-77
2023/08/03 06:54:19;;;;;;;24.50;23.40;;;;;;;;;;5095583;28;20484;-78
2023/08/03 06:56:46;;;;;;;26.27;25.03;;;;;;;;;;5095812;28;20449;-78
2023/08/03 06:59:20;;;;;;;26.17;24.97;;;;;;;;;;5094706;28;20441;-77
2023/08/03 07:01:47;;;;;;;26.00;24.80;;;;;;;;;;5094830;28;20470;-78
2023/08/03 07:04:15;;;;;;;25.27;24.17;;;;;;;;;;5095193;28;20441;-78
2023/08/03 07:06:44;;;;;;;26.40;25.10;;;;;;;;;;5096077;28;20797;-78
2023/08/03 07:09:11;;;;;;;27.03;25.60;;;;;;;;;;5095097;28;20938;-78
2023/08/03 07:11:38;;;;;;;25.73;24.53;;;;;;;;;;5094861;28;20481;-77
2023/08/03 07:14:05;;;;;;;25.90;24.70;;;;;;;;;;5095319;28;20463;-77
2023/08/03 07:16:32;;;;;;;29.67;28.17;;;;;;;;;;5094653;28;20520;-80
2023/08/03 07:18:59;;;;;;;29.93;28.43;;;;;;;;;;5094668;28;20451;-82
2023/08/03 07:21:26;;;;;;;28.73;27.33;;;;;;;;;;5091064;28;20968;-82
2023/08/03 07:23:55;;;;;;;29.63;28.23;;;;;;;;;;5075636;28;20438;-82
2023/08/03 07:26:23;;;;;;;28.17;26.77;;;;;;;;;;5073164;28;20450;-84
2023/08/03 07:28:50;;;;;;;29.27;27.67;;;;;;;;;;5072060;28;20450;-83
2023/08/03 07:31:17;;;;;;;29.03;27.73;;;;;;;;;;5069996;28;20997;-82
2023/08/03 07:33:44;;;;;;;29.53;28.00;;;;;;;;;;5073928;28;21002;-85
2023/08/03 07:36:16;;;;;;;28.87;27.40;;;;;;;;;;5080246;28;20943;-83
2023/08/03 07:38:43;;;;;;;30.43;29.03;;;;;;;;;;5078221;28;20414;-87
2023/08/03 07:41:11;;;;;;;30.83;28.93;;;;;;;;;;5072037;28;20465;-86
2023/08/03 07:43:39;;;;;;;37.60;35.80;;;;;;;;;;5067186;28;20814;-85
2023/08/03 07:46:06;;;;;;;38.23;36.40;;;;;;;;;;5070981;28;21070;-83
2023/08/03 07:48:33;;;;;;;39.40;37.27;;;;;;;;;;5070314;28;20509;-83
2023/08/03 07:51:00;;;;;;;39.47;37.57;;;;;;;;;;5070210;28;20454;-83
2023/08/03 07:53:27;;;;;;;39.97;37.63;;;;;;;;;;5070894;28;20497;-82
2023/08/03 07:55:54;;;;;;;38.47;36.47;;;;;;;;;;5074860;28;20436;-83
2023/08/03 07:58:22;;;;;;;35.67;33.83;;;;;;;;;;5074775;28;20434;-84
2023/08/03 08:00:50;;;;;;;40.50;38.40;;;;;;;;;;5074775;28;20492;-84
2023/08/03 08:03:17;;;;;;;37.50;35.70;;;;;;;;;;5074947;28;20438;-83
2023/08/03 08:05:44;;;;;;;39.80;37.70;;;;;;;;;;5073880;28;20436;-83
2023/08/03 08:08:11;;;;;;;39.43;37.43;;;;;;;;;;5075309;28;20476;-84
2023/08/03 08:10:38;;;;;;;40.10;37.83;;;;;;;;;;5074482;28;20449;-82
2023/08/03 08:13:05;;;;;;;48.23;45.73;;;;;;;;;;5075962;28;20481;-82
2023/08/03 08:15:36;;;;;;;42.60;40.33;;;;;;;;;;5080473;28;20477;-83
2023/08/03 08:18:09;;;;;;;43.80;41.40;;;;;;;;;;5079204;28;20481;-82
2023/08/03 08:20:36;;;;;;;45.80;43.50;;;;;;;;;;5087833;28;20484;-80
2023/08/03 08:23:05;;;;;;;38.77;36.77;;;;;;;;;;5088803;28;20438;-80
2023/08/03 08:25:33;;;;;;;36.50;34.30;;;;;;;;;;5085970;28;20499;-78
2023/08/03 08:28:01;;;;;;;33.60;31.80;;;;;;;;;;5085118;28;20450;-77
2023/08/03 08:31:03;;;;;;;36.53;34.63;;;;;;;;;;5086982;28;21103;-79
2023/08/03 08:33:41;;;;;;;34.10;31.90;;;;;;;;;;5084316;28;20485;-78
2023/08/03 08:36:08;;;;;;;33.97;32.17;;;;;;;;;;5085401;28;21077;-79
2023/08/03 08:38:35;;;;;;;35.53;33.73;;;;;;;;;;5091172;28;20437;-78
2023/08/03 08:41:03;;;;;;;35.93;34.13;;;;;;;;;;5075099;28;20477;-75
2023/08/03 08:44:05;;;;;;;37.17;35.17;;;;;;;;;;5071417;28;20972;-76
2023/08/03 08:46:32;;;;;;;38.60;36.60;;;;;;;;;;5070139;28;20481;-80
2023/08/03 08:49:02;;;;;;;37.90;35.97;;;;;;;;;;5073588;28;20467;-76
2023/08/03 08:51:29;;;;;;;39.30;37.03;;;;;;;;;;5075823;28;20516;-76
2023/08/03 08:53:56;;;;;;;39.00;37.10;;;;;;;;;;5075475;28;20492;-75
2023/08/03 08:57:00;;;;;;;39.10;37.10;;;;;;;;;;5073693;28;20469;-78
2023/08/03 08:59:27;;;;;;;37.50;35.70;;;;;;;;;;5071238;28;20434;-77
2023/08/03 09:01:56;;;;;;;39.23;37.33;;;;;;;;;;5073803;28;20458;-78
2023/08/03 09:04:35;;;;;;;38.53;36.63;;;;;;;;;;5076032;28;20491;-78
2023/08/03 09:07:03;;;;;;;40.13;38.03;;;;;;;;;;5080368;28;20449;-76
2023/08/03 09:09:33;;;;;;;37.30;35.40;;;;;;;;;;5074652;28;20860;-79
2023/08/03 09:12:01;;;;;;;39.77;37.77;;;;;;;;;;5075954;28;20459;-78
2023/08/03 09:14:30;;;;;;;37.73;35.93;;;;;;;;;;5081620;28;20552;-78
2023/08/03 09:17:16;;;;;;;37.57;35.57;;;;;;;;;;5078457;28;20481;-79
2023/08/03 09:19:45;;;;;;;36.50;34.60;;;;;;;;;;5076523;28;20430;-78
2023/08/03 09:22:12;;;;;;;38.70;36.80;;;;;;;;;;5075598;28;20564;-78
2023/08/03 09:24:39;;;;;;;37.30;35.50;;;;;;;;;;5076220;28;20445;-79
2023/08/03 09:27:06;;;;;;;36.50;34.70;;;;;;;;;;5073989;28;20997;-76
2023/08/03 09:29:34;;;;;;;33.93;32.23;;;;;;;;;;5074455;28;20438;-75
2023/08/03 09:32:02;;;;;;;34.57;32.67;;;;;;;;;;5074617;28;20481;-76
2023/08/03 09:34:35;;;;;;;33.30;31.60;;;;;;;;;;5075656;28;20948;-76
2023/08/03 09:37:04;;;;;;;34.20;32.20;;;;;;;;;;5074256;28;20922;-76
2023/08/03 09:39:34;;;;;;;37.87;35.97;;;;;;;;;;5075622;28;20954;-79
2023/08/03 09:42:03;;;;;;;40.03;38.03;;;;;;;;;;5076870;28;20473;-79
2023/08/03 09:44:31;;;;;;;39.70;37.70;;;;;;;;;;5078831;28;20437;-78
2023/08/03 09:46:58;;;;;;;38.17;36.27;;;;;;;;;;5087950;28;20608;-78
2023/08/03 09:49:26;;;;;;;36.77;34.97;;;;;;;;;;5084228;28;20473;-77
2023/08/03 09:51:54;;;;;;;38.27;36.20;;;;;;;;;;5076867;28;20506;-76
2023/08/03 09:54:26;;;;;;;37.63;35.70;;;;;;;;;;5078278;28;20485;-77
2023/08/03 09:56:57;;;;;;;40.63;38.37;;;;;;;;;;5077864;28;20446;-79
2023/08/03 09:59:25;;;;;;;38.57;36.37;;;;;;;;;;5075138;28;20877;-75
2023/08/03 10:01:53;;;;;;;35.00;32.80;;;;;;;;;;5075931;28;20829;-75
2023/08/03 10:04:21;;;;;;;38.33;36.30;;;;;;;;;;5075135;28;20442;-75
2023/08/03 10:06:52;;;;;;;37.33;35.13;;;;;;;;;;5075304;28;20450;-75
2023/08/03 10:09:22;;;;;;;35.20;33.30;;;;;;;;;;5074166;28;20430;-74
2023/08/03 10:11:52;;;;;;;37.10;34.80;;;;;;;;;;5074263;28;21007;-76
2023/08/03 10:14:27;;;;;;;36.07;33.87;;;;;;;;;;5073452;28;20589;-75
2023/08/03 10:16:54;;;;;;;35.20;33.40;;;;;;;;;;5074278;28;20433;-75
2023/08/03 10:19:22;;;;;;;30.10;28.50;;;;;;;;;;5075556;28;20848;-75
2023/08/03 10:21:49;;;;;;;28.67;27.27;;;;;;;;;;5074650;28;20524;-75
2023/08/03 10:24:18;;;;;;;31.03;29.43;;;;;;;;;;5074167;28;20452;-76
2023/08/03 10:26:45;;;;;;;29.27;27.70;;;;;;;;;;5076886;28;20977;-76
2023/08/03 10:29:14;;;;;;;27.83;26.33;;;;;;;;;;5076584;28;20990;-76
2023/08/03 10:31:54;;;;;;;31.73;29.60;;;;;;;;;;5078036;28;20492;-78
2023/08/03 10:34:27;;;;;;;31.80;29.90;;;;;;;;;;5081008;28;20485;-79
2023/08/03 10:36:56;;;;;;;26.60;25.20;;;;;;;;;;5083168;28;20927;-78
2023/08/03 10:39:59;;;;;;;28.90;27.30;;;;;;;;;;5084094;28;20454;-79
2023/08/03 10:42:30;;;;;;;28.80;26.90;;;;;;;;;;5018917;28;20484;-78
2023/08/03 10:45:12;;;;;;;25.27;24.00;;;;;;;;;;5021003;28;20452;-79
2023/08/03 10:47:40;;;;;;;27.10;25.63;;;;;;;;;;5054508;28;20476;-78
2023/08/03 10:50:08;;;;;;;28.83;27.30;;;;;;;;;;5081087;28;20453;-78
2023/08/03 10:52:35;;;;;;;25.40;24.20;;;;;;;;;;5079033;28;20461;-78
2023/08/03 10:55:20;;;;;;;27.53;26.13;;;;;;;;;;5080412;28;20528;-78
2023/08/03 10:57:48;;;;;;;27.33;25.90;;;;;;;;;;5077371;28;20441;-78
2023/08/03 11:00:15;;;;;;;29.30;27.80;;;;;;;;;;5075402;28;20492;-79
2023/08/03 11:02:44;;;;;;;28.80;27.30;;;;;;;;;;5078878;28;21004;-77
2023/08/03 11:05:12;;;;;;;26.60;25.20;;;;;;;;;;5076498;28;20465;-80
2023/08/03 11:07:40;;;;;;;28.73;27.23;;;;;;;;;;5080328;28;20458;-79
2023/08/03 11:10:09;;;;;;;27.93;26.43;;;;;;;;;;5081061;28;20417;-79
2023/08/03 11:12:36;;;;;;;28.37;26.57;;;;;;;;;;5078566;28;20940;-79
2023/08/03 11:15:05;;;;;;;28.50;26.87;;;;;;;;;;5078080;28;20523;-76
2023/08/03 11:17:33;;;;;;;29.77;28.03;;;;;;;;;;5076534;28;20577;-76
2023/08/03 11:20:03;;;;;;;25.73;24.33;;;;;;;;;;5074261;28;20511;-75
2023/08/03 11:22:33;;;;;;;27.70;25.73;;;;;;;;;;5082010;28;20462;-76
2023/08/03 11:25:03;;;;;;;28.40;26.83;;;;;;;;;;5079941;28;20449;-76
2023/08/03 11:27:31;;;;;;;27.83;26.30;;;;;;;;;;5080859;28;20448;-74
2023/08/03 11:29:59;;;;;;;30.43;28.50;;;;;;;;;;5080644;28;20474;-75
2023/08/03 11:32:29;;;;;;;30.50;28.90;;;;;;;;;;5076547;28;20822;-76
2023/08/03 11:34:59;;;;;;;32.03;30.30;;;;;;;;;;5077355;28;20476;-75
2023/08/03 11:37:30;;;;;;;34.40;32.53;;;;;;;;;;5074782;28;20453;-75
2023/08/03 11:39:58;;;;;;;34.17;32.33;;;;;;;;;;5077703;28;20407;-75
2023/08/03 11:42:26;;;;;;;35.73;33.73;;;;;;;;;;5075804;28;20531;-74
2023/08/03 11:44:53;;;;;;;34.83;32.57;;;;;;;;;;5075020;28;20449;-75
2023/08/03 11:47:20;;;;;;;37.53;35.63;;;;;;;;;;5078660;28;20436;-77
2023/08/03 11:49:48;;;;;;;38.37;36.47;;;;;;;;;;5077456;28;20427;-76
2023/08/03 11:52:19;;;;;;;40.37;38.17;;;;;;;;;;5077589;28;20489;-76
2023/08/03 11:54:48;;;;;;;40.53;38.23;;;;;;;;;;5074112;28;20972;-77
2023/08/03 12:00:02;;;;;;;38.33;36.23;;;;;;;;;;5063636;28;20594;-76
2023/08/03 12:02:39;;;;;;;41.70;39.30;;;;;;;;;;5073276;28;20474;-77
2023/08/03 12:05:06;;;;;;;41.37;38.97;;;;;;;;;;5073211;28;20449;-77
2023/08/03 12:07:33;;;;;;;39.73;37.53;;;;;;;;;;5072191;28;20441;-77
2023/08/03 12:10:02;;;;;;;40.67;38.57;;;;;;;;;;5073772;28;20445;-77
2023/08/03 12:12:29;;;;;;;40.10;38.13;;;;;;;;;;5074687;28;20477;-80
2023/08/03 12:14:56;;;;;;;40.57;38.37;;;;;;;;;;5075333;28;20477;-78
2023/08/03 12:17:24;;;;;;;40.50;38.30;;;;;;;;;;5073243;28;20477;-77
2023/08/03 12:19:50;;;;;;;47.23;44.53;;;;;;;;;;5073579;28;20449;-77
2023/08/03 12:22:18;;;;;;;44.63;42.13;;;;;;;;;;5076865;28;20458;-78
2023/08/03 12:24:45;;;;;;;46.10;43.53;;;;;;;;;;5074231;28;20466;-78
2023/08/03 12:27:13;;;;;;;43.47;40.97;;;;;;;;;;5075933;28;20860;-79
2023/08/03 12:29:40;;;;;;;44.20;41.77;;;;;;;;;;5076210;28;20453;-77
2023/08/03 12:32:08;;;;;;;40.93;38.73;;;;;;;;;;5074273;28;20956;-77
2023/08/03 12:34:35;;;;;;;43.67;41.40;;;;;;;;;;5076399;28;20466;-78
2023/08/03 12:37:02;;;;;;;41.83;39.63;;;;;;;;;;5077400;28;20453;-80
2023/08/03 12:39:30;;;;;;;46.00;43.40;;;;;;;;;;5075579;28;20466;-79
2023/08/03 12:41:57;;;;;;;43.27;40.70;;;;;;;;;;5078587;28;20619;-78
2023/08/03 12:44:26;;;;;;;44.90;42.30;;;;;;;;;;5075745;28;20438;-79
2023/08/03 12:46:53;;;;;;;43.93;41.57;;;;;;;;;;5075431;28;20825;-79
2023/08/03 12:49:21;;;;;;;44.97;42.47;;;;;;;;;;5079524;28;21107;-79
2023/08/03 12:51:48;;;;;;;48.60;45.90;;;;;;;;;;5078651;28;20447;-79
2023/08/03 12:54:15;;;;;;;48.00;45.30;;;;;;;;;;5080416;28;20982;-79
2023/08/03 12:56:42;;;;;;;46.40;43.70;;;;;;;;;;5079531;28;20498;-78
2023/08/03 12:59:09;;;;;;;44.20;41.40;;;;;;;;;;5080989;28;20456;-79
2023/08/03 13:01:37;;;;;;;42.70;40.30;;;;;;;;;;5079711;28;20486;-78
2023/08/03 13:04:05;;;;;;;48.17;45.37;;;;;;;;;;5081478;28;20453;-79
2023/08/03 13:06:32;;;;;;;45.40;42.80;;;;;;;;;;5082818;28;20452;-79
2023/08/03 13:08:59;;;;;;;41.40;39.17;;;;;;;;;;5082274;28;20451;-79
2023/08/03 13:11:28;;;;;;;44.00;41.13;;;;;;;;;;5080594;28;20489;-83
2023/08/03 13:13:55;;;;;;;43.63;41.23;;;;;;;;;;5081411;28;20441;-83
2023/08/03 13:16:22;;;;;;;40.73;38.13;;;;;;;;;;5080635;28;20490;-80
2023/08/03 13:18:52;;;;;;;43.10;40.50;;;;;;;;;;5080488;28;20869;-80
2023/08/03 13:21:19;;;;;;;40.23;37.97;;;;;;;;;;5078977;28;20481;-81
2023/08/03 13:23:47;;;;;;;42.50;39.70;;;;;;;;;;5080024;28;20437;-81
2023/08/03 13:26:14;;;;;;;38.27;35.87;;;;;;;;;;5080404;28;20450;-80
2023/08/03 13:28:42;;;;;;;41.13;38.47;;;;;;;;;;5079069;28;20430;-79
2023/08/03 13:31:09;;;;;;;37.87;35.27;;;;;;;;;;5079137;28;20490;-80
2023/08/03 13:33:38;;;;;;;39.90;37.20;;;;;;;;;;5079472;28;20453;-80
2023/08/03 13:36:06;;;;;;;38.00;35.43;;;;;;;;;;5080216;28;20477;-80
2023/08/03 13:38:33;;;;;;;35.60;33.20;;;;;;;;;;5080834;28;20445;-81
2023/08/03 13:41:01;;;;;;;31.77;29.53;;;;;;;;;;5078996;28;20440;-80
2023/08/03 13:43:28;;;;;;;32.50;30.63;;;;;;;;;;5080785;28;20871;-80
2023/08/03 13:45:55;;;;;;;35.30;32.70;;;;;;;;;;5078258;28;20416;-80
2023/08/03 13:48:22;;;;;;;32.50;30.53;;;;;;;;;;5078438;28;20943;-80
2023/08/03 13:50:50;;;;;;;33.07;31.03;;;;;;;;;;5077633;28;20543;-80
2023/08/03 13:53:19;;;;;;;32.90;30.80;;;;;;;;;;5082470;28;20446;-81
2023/08/03 13:55:46;;;;;;;31.90;29.90;;;;;;;;;;5079332;28;20815;-81
2023/08/03 13:58:13;;;;;;;32.00;30.00;;;;;;;;;;5080131;28;20442;-80
2023/08/03 14:00:41;;;;;;;30.50;28.73;;;;;;;;;;5075125;28;20492;-81
2023/08/03 14:03:23;;;;;;;31.07;29.27;;;;;;;;;;5084054;28;20457;-79
2023/08/03 14:05:50;;;;;;;29.60;27.57;;;;;;;;;;5079185;28;20524;-80
2023/08/03 14:08:18;;;;;;;35.57;33.27;;;;;;;;;;5063495;28;20451;-80
2023/08/03 14:10:45;;;;;;;33.40;31.50;;;;;;;;;;5056072;28;20489;-80
2023/08/03 14:13:12;;;;;;;34.07;31.70;;;;;;;;;;5057750;28;20419;-81
2023/08/03 14:15:39;;;;;;;29.50;27.80;;;;;;;;;;5057724;28;20835;-80
2023/08/03 14:18:06;;;;;;;33.97;31.57;;;;;;;;;;5057123;28;20436;-80
2023/08/03 14:20:34;;;;;;;36.80;34.20;;;;;;;;;;5056637;28;20470;-81
2023/08/03 14:23:01;;;;;;;25.97;24.63;;;;;;;;;;5057600;28;20434;-80
2023/08/03 14:25:29;;;;;;;27.47;25.83;;;;;;;;;;5057348;28;20442;-80